createdAt,value
2018-03-16T04:28:34.884Z,7.40
2018-03-16T04:31:04.805Z,7.50
2018-03-16T04:33:34.422Z,7.20
2018-03-16T04:36:04.274Z,7.87
2018-03-16T04:38:33.728Z,8.50
2018-03-16T04:41:03.615Z,9.37
2018-03-16T04:43:33.082Z,8.70
2018-03-16T04:46:02.725Z,9.60
2018-03-16T04:48:32.186Z,10.13
2018-03-16T04:51:01.644Z,9.20
2018-03-16T04:53:31.106Z,9.20
2018-03-16T04:56:00.542Z,8.63
2018-03-16T04:58:29.982Z,8.50
2018-03-16T05:00:59.833Z,8.37
2018-03-16T05:03:29.353Z,9.10
2018-03-16T05:05:58.798Z,10.17
2018-03-16T05:08:28.662Z,13.63
2018-03-16T05:10:58.183Z,18.00
2018-03-16T05:13:27.640Z,16.10
2018-03-16T05:15:57.482Z,10.30
2018-03-16T05:18:26.761Z,9.63
2018-03-16T05:20:56.231Z,9.90
2018-03-16T05:23:26.161Z,9.17
2018-03-16T05:25:56.002Z,8.80
2018-03-16T05:28:25.446Z,9.03
2018-03-16T05:30:54.894Z,9.53
2018-03-16T05:33:24.747Z,9.53
2018-03-16T05:35:54.448Z,9.27
2018-03-16T05:38:23.902Z,9.30
2018-03-16T05:40:53.423Z,9.33
2018-03-16T05:43:23.246Z,9.77
2018-03-16T05:45:52.698Z,10.73
2018-03-16T05:48:22.158Z,8.83
2018-03-16T05:50:51.604Z,8.50
2018-03-16T05:53:21.063Z,9.93
2018-03-16T05:55:50.556Z,9.73
2018-03-16T05:58:20.398Z,9.60
2018-03-16T06:00:49.899Z,10.30
2018-03-16T06:03:19.492Z,11.03
2018-03-16T06:05:48.937Z,12.20
2018-03-16T06:08:18.396Z,12.20
2018-03-16T06:10:48.256Z,12.97
2018-03-16T06:13:17.725Z,13.43
2018-03-16T06:15:47.176Z,12.00
2018-03-16T06:18:19.082Z,12.23
2018-03-16T06:20:48.936Z,12.17
2018-03-16T06:23:18.404Z,11.43
2018-03-16T06:25:48.250Z,11.20
2018-03-16T06:28:17.723Z,11.13
2018-03-16T06:30:47.173Z,11.27
2018-03-16T06:33:16.656Z,11.07
2018-03-16T06:35:46.115Z,11.77
2018-03-16T06:38:15.981Z,11.27
2018-03-16T06:40:45.422Z,10.37
2018-03-16T06:43:14.927Z,10.87
2018-03-16T06:45:44.572Z,11.33
2018-03-16T06:48:14.026Z,11.47
2018-03-16T06:50:43.676Z,11.73
2018-03-16T06:53:13.530Z,12.10
2018-03-16T06:55:42.991Z,12.53
2018-03-16T06:58:12.850Z,13.40
2018-03-16T07:00:42.328Z,12.70
2018-03-16T07:03:11.788Z,14.03
2018-03-16T07:05:41.234Z,13.87
2018-03-16T07:08:10.729Z,14.37
2018-03-16T07:10:40.807Z,13.37
2018-03-16T07:13:10.289Z,13.77
2018-03-16T07:15:39.754Z,14.87
2018-03-16T07:18:09.868Z,13.40
2018-03-16T07:20:39.734Z,13.27
2018-03-16T07:23:09.188Z,14.13
2018-03-16T07:25:39.050Z,14.03
2018-03-16T07:28:08.676Z,12.97
2018-03-16T07:30:38.130Z,13.30
2018-03-16T07:33:07.576Z,13.50
2018-03-16T07:35:37.051Z,13.67
2018-03-16T07:38:07.316Z,14.00
2018-03-16T07:40:37.161Z,14.00
2018-03-16T07:43:07.001Z,14.10
2018-03-16T07:45:41.861Z,14.23
2018-03-16T07:48:11.340Z,13.13
2018-03-16T07:50:40.777Z,13.63
2018-03-16T07:53:10.239Z,12.87
2018-03-16T07:55:39.700Z,14.00
2018-03-16T07:58:09.303Z,13.27
2018-03-16T08:00:38.769Z,13.37
2018-03-16T08:03:08.449Z,13.03
2018-03-16T08:05:38.328Z,12.87
2018-03-16T08:08:07.777Z,12.07
2018-03-16T08:10:37.639Z,12.53
2018-03-16T08:13:07.328Z,12.83
2018-03-16T08:15:36.786Z,11.97
2018-03-16T08:18:06.151Z,12.33
2018-03-16T08:20:35.599Z,11.87
2018-03-16T08:23:05.442Z,12.80
2018-03-16T08:25:35.117Z,12.17
2018-03-16T08:28:05.045Z,12.40
2018-03-16T08:30:34.654Z,10.83
2018-03-16T08:33:04.769Z,11.30
2018-03-16T08:35:34.614Z,11.83
2018-03-16T08:38:04.063Z,11.23
2018-03-16T08:40:33.549Z,10.50
2018-03-16T08:43:03.001Z,10.90
2018-03-16T08:45:32.857Z,12.63
2018-03-16T08:48:02.327Z,12.13
2018-03-16T08:50:31.774Z,10.57
2018-03-16T08:53:01.047Z,10.90
2018-03-16T08:55:30.555Z,10.83
2018-03-16T08:58:00.165Z,10.07
2018-03-16T09:00:29.605Z,10.00
2018-03-16T09:02:59.067Z,9.23
2018-03-16T09:05:28.527Z,8.90
2018-03-16T09:07:58.173Z,9.33
2018-03-16T09:10:27.619Z,9.30
2018-03-16T09:12:57.075Z,9.77
2018-03-16T09:15:26.525Z,8.90
2018-03-16T09:17:55.967Z,8.70
2018-03-16T09:20:25.799Z,8.90
2018-03-16T09:22:55.235Z,8.40
2018-03-16T09:25:24.687Z,8.20
2018-03-16T09:27:54.519Z,8.30
2018-03-16T09:30:23.956Z,8.20
2018-03-16T09:32:53.401Z,7.97
2018-03-16T09:35:23.280Z,8.03
2018-03-16T09:37:52.932Z,8.37
2018-03-16T09:40:22.771Z,9.47
2018-03-16T09:42:52.030Z,7.33
2018-03-16T09:45:21.484Z,8.70
2018-03-16T09:47:50.921Z,7.63
2018-03-16T09:50:20.381Z,8.77
2018-03-16T09:52:49.840Z,7.97
2018-03-16T09:58:27.277Z,8.00
2018-03-16T10:00:57.119Z,8.50
2018-03-16T10:03:26.560Z,7.47
2018-03-16T10:05:56.034Z,7.50
2018-03-16T10:08:25.515Z,7.17
2018-03-16T10:10:55.013Z,6.93
2018-03-16T10:13:24.873Z,6.33
2018-03-16T10:15:54.398Z,6.30
2018-03-16T10:18:23.842Z,6.93
2018-03-16T10:20:53.691Z,5.87
2018-03-16T10:23:23.145Z,5.00
2018-03-16T10:25:52.985Z,5.33
2018-03-16T10:28:22.438Z,4.90
2018-03-16T10:30:51.905Z,6.03
2018-03-16T10:33:21.543Z,5.37
2018-03-16T10:35:50.991Z,5.47
2018-03-16T10:38:20.833Z,6.10
2018-03-16T10:40:50.281Z,5.60
2018-03-16T10:43:19.731Z,6.20
2018-03-16T10:45:49.182Z,5.67
2018-03-16T10:48:18.638Z,5.37
2018-03-16T10:50:48.105Z,5.40
2018-03-16T10:53:17.540Z,6.10
2018-03-16T10:55:46.999Z,5.80
2018-03-16T10:58:16.655Z,6.37
2018-03-16T11:00:51.587Z,4.77
2018-03-16T11:03:21.432Z,5.13
2018-03-16T11:05:54.723Z,5.40
2018-03-16T11:08:29.459Z,6.43
2018-03-16T11:10:59.092Z,5.10
2018-03-16T11:13:28.819Z,6.60
2018-03-16T11:15:58.685Z,5.70
2018-03-16T11:18:28.211Z,5.20
2018-03-16T11:20:57.695Z,5.33
2018-03-16T11:23:27.164Z,5.20
2018-03-16T11:25:57.211Z,7.53
2018-03-16T11:28:26.667Z,7.10
2018-03-16T11:30:56.127Z,6.23
2018-03-16T11:33:25.581Z,6.67
2018-03-16T11:35:55.517Z,5.97
2018-03-16T11:38:25.571Z,6.13
2018-03-16T11:40:55.057Z,6.73
2018-03-16T11:43:24.724Z,4.80
2018-03-16T11:45:54.607Z,5.03
2018-03-16T11:48:24.052Z,4.67
2018-03-16T11:50:53.917Z,5.13
2018-03-16T11:53:23.391Z,4.97
2018-03-16T11:55:52.847Z,5.23
2018-03-16T11:58:22.293Z,4.57
2018-03-16T12:00:51.773Z,5.80
2018-03-16T12:03:21.219Z,3.83
2018-03-16T12:05:50.477Z,3.70
2018-03-16T12:08:19.951Z,3.10
2018-03-16T12:10:49.467Z,4.57
2018-03-16T12:13:19.113Z,4.60
2018-03-16T12:15:48.963Z,5.17
2018-03-16T12:18:19.326Z,2.90
2018-03-16T12:20:48.777Z,5.27
2018-03-16T12:23:18.224Z,2.73
2018-03-16T12:25:47.675Z,2.50
2018-03-16T12:28:16.559Z,3.40
2018-03-16T12:30:46.433Z,2.10
2018-03-16T12:33:15.878Z,2.50
2018-03-16T12:35:45.730Z,2.60
2018-03-16T12:38:15.210Z,2.77
2018-03-16T12:40:44.869Z,2.77
2018-03-16T12:43:14.371Z,2.63
2018-03-16T12:45:44.009Z,4.30
2018-03-16T12:48:13.855Z,2.90
2018-03-16T12:50:43.317Z,3.47
2018-03-16T12:53:12.769Z,2.73
2018-03-16T12:55:42.230Z,5.03
2018-03-16T12:58:11.677Z,3.60
2018-03-16T13:00:41.131Z,3.40
2018-03-16T13:03:10.598Z,3.57
2018-03-16T13:05:40.055Z,3.60
2018-03-16T13:08:09.181Z,5.23
2018-03-16T13:10:38.619Z,5.37
2018-03-16T13:13:08.115Z,5.37
2018-03-16T13:15:37.582Z,4.03
2018-03-16T13:18:07.428Z,3.60
2018-03-16T13:20:36.879Z,3.63
2018-03-16T13:23:06.537Z,3.30
2018-03-16T13:25:35.995Z,3.47
2018-03-16T13:28:05.841Z,4.03
2018-03-16T13:30:35.892Z,4.17
2018-03-16T13:33:05.134Z,3.50
2018-03-16T13:35:34.782Z,3.47
2018-03-16T13:38:04.272Z,4.27
2018-03-16T13:40:33.734Z,4.30
2018-03-16T13:43:03.188Z,4.63
2018-03-16T13:45:32.406Z,4.63
2018-03-16T13:48:01.860Z,3.77
2018-03-16T13:50:31.521Z,5.60
2018-03-16T13:53:01.057Z,5.90
2018-03-16T13:55:30.506Z,3.70
2018-03-16T13:57:59.950Z,3.90
2018-03-16T14:00:29.418Z,3.90
2018-03-16T14:02:58.878Z,3.47
2018-03-16T14:05:28.320Z,3.27
2018-03-16T14:07:57.794Z,4.27
2018-03-16T14:10:27.656Z,3.13
2018-03-16T14:12:57.128Z,3.40
2018-03-16T14:15:26.990Z,4.03
2018-03-16T14:17:56.441Z,3.23
2018-03-16T14:20:26.298Z,4.50
2018-03-16T14:22:55.931Z,3.13
2018-03-16T14:25:25.404Z,4.67
2018-03-16T14:27:54.904Z,3.57
2018-03-16T14:30:24.935Z,3.27
2018-03-16T14:32:54.220Z,3.67
2018-03-16T14:35:23.875Z,4.90
2018-03-16T14:37:53.437Z,2.67
2018-03-16T14:40:22.898Z,3.27
2018-03-16T14:42:52.622Z,2.80
2018-03-16T14:45:22.471Z,2.93
2018-03-16T14:47:51.928Z,3.23
2018-03-16T14:50:21.802Z,2.97
2018-03-16T14:52:51.470Z,3.53
2018-03-16T14:55:21.319Z,3.43
2018-03-16T14:57:50.784Z,3.50
2018-03-16T15:00:20.660Z,2.87
2018-03-16T15:02:50.110Z,3.70
2018-03-16T15:05:19.577Z,3.23
2018-03-16T15:07:49.055Z,3.00
2018-03-16T15:10:18.520Z,2.90
2018-03-16T15:12:48.378Z,3.00
2018-03-16T15:15:17.826Z,2.90
2018-03-16T15:17:47.663Z,3.17
2018-03-16T15:20:17.156Z,3.60
2018-03-16T15:22:47.007Z,2.63
2018-03-16T15:25:16.974Z,1.90
2018-03-16T15:27:46.848Z,2.20
2018-03-16T15:30:16.315Z,2.20
2018-03-16T15:32:45.787Z,2.30
2018-03-16T15:35:15.672Z,2.30
2018-03-16T15:37:45.120Z,4.57
2018-03-16T15:40:14.980Z,4.30
2018-03-16T15:42:44.436Z,3.33
2018-03-16T15:45:14.279Z,4.97
2018-03-16T15:47:44.580Z,3.03
2018-03-16T15:50:14.482Z,4.17
2018-03-16T15:52:44.952Z,3.10
2018-03-16T15:55:14.458Z,3.30
2018-03-16T15:57:44.074Z,3.83
2018-03-16T16:00:13.532Z,2.70
2018-03-16T16:02:43.378Z,2.87
2018-03-16T16:05:12.864Z,2.27
2018-03-16T16:07:42.734Z,2.40
2018-03-16T16:10:12.402Z,2.30
2018-03-16T16:12:41.862Z,1.53
2018-03-16T16:15:11.353Z,2.13
2018-03-16T16:17:41.006Z,2.13
2018-03-16T16:20:10.875Z,2.63
2018-03-16T16:22:40.337Z,2.53
2018-03-16T16:25:09.808Z,5.00
2018-03-16T16:27:39.924Z,3.13
2018-03-16T16:30:09.402Z,2.50
2018-03-16T16:32:38.888Z,3.67
2018-03-16T16:35:08.342Z,2.50
2018-03-16T16:37:37.801Z,1.53
2018-03-16T16:40:06.940Z,2.73
2018-03-16T16:42:36.388Z,2.30
2018-03-16T16:45:05.581Z,1.93
2018-03-16T16:47:35.628Z,1.70
2018-03-16T16:50:04.822Z,1.33
2018-03-16T16:52:34.599Z,1.40
2018-03-16T16:55:04.183Z,1.60
2018-03-16T16:57:33.724Z,2.17
2018-03-16T17:00:03.184Z,1.33
2018-03-16T17:02:32.674Z,1.90
2018-03-16T17:05:02.134Z,1.20
2018-03-16T17:07:31.604Z,2.33
2018-03-16T17:10:00.874Z,2.07
2018-03-16T17:12:30.542Z,2.00
2018-03-16T17:15:00.390Z,1.70
2018-03-16T17:17:29.858Z,1.97
2018-03-16T17:19:59.970Z,3.83
2018-03-16T17:22:29.854Z,3.20
2018-03-16T17:24:59.503Z,2.20
2018-03-16T17:27:29.389Z,2.83
2018-03-16T17:29:59.040Z,2.93
2018-03-16T17:32:28.486Z,3.07
2018-03-16T17:34:57.966Z,2.60
2018-03-16T17:37:27.734Z,3.40
2018-03-16T17:39:57.592Z,2.53
2018-03-16T17:42:27.054Z,3.73
2018-03-16T17:44:56.904Z,1.87
2018-03-16T17:47:26.342Z,2.47
2018-03-16T17:49:55.798Z,1.93
2018-03-16T17:52:25.440Z,1.50
2018-03-16T17:54:54.939Z,1.50
2018-03-16T17:57:24.938Z,3.70
2018-03-16T17:59:54.372Z,2.17
2018-03-16T18:02:23.817Z,2.03
2018-03-16T18:04:53.660Z,4.97
2018-03-16T18:07:23.338Z,4.33
2018-03-16T18:09:53.193Z,3.90
2018-03-16T18:12:22.649Z,3.87
2018-03-16T18:14:52.110Z,2.00
2018-03-16T18:17:21.872Z,3.03
2018-03-16T18:19:51.721Z,3.27
2018-03-16T18:22:21.193Z,6.43
2018-03-16T18:24:51.033Z,4.40
2018-03-16T18:27:20.488Z,5.53
2018-03-16T18:29:49.751Z,7.77
2018-03-16T18:32:19.020Z,3.13
2018-03-16T18:34:48.872Z,3.43
2018-03-16T18:37:18.319Z,2.20
2018-03-16T18:39:48.173Z,3.33
2018-03-16T18:42:17.620Z,2.53
2018-03-16T18:44:47.088Z,3.37
2018-03-16T18:47:16.549Z,4.90
2018-03-16T18:49:46.397Z,3.93
2018-03-16T18:52:15.901Z,7.53
2018-03-16T18:54:45.499Z,3.40
2018-03-16T18:57:14.936Z,9.10
2018-03-16T18:59:44.396Z,4.73
2018-03-16T19:02:14.250Z,8.40
2018-03-16T19:04:43.723Z,11.00
2018-03-16T19:07:13.183Z,8.37
2018-03-16T19:09:42.640Z,10.73
2018-03-16T19:12:12.286Z,9.50
2018-03-16T19:14:41.729Z,10.03
2018-03-16T19:17:11.782Z,10.23
2018-03-16T19:19:41.235Z,8.97
2018-03-16T19:22:10.691Z,9.40
2018-03-16T19:24:40.153Z,13.33
2018-03-16T19:27:09.791Z,11.30
2018-03-16T19:29:39.245Z,11.33
2018-03-16T19:32:08.693Z,12.10
2018-03-16T19:34:38.157Z,13.93
2018-03-16T19:37:07.621Z,14.77
2018-03-16T19:39:37.271Z,10.83
2018-03-16T19:42:06.721Z,4.87
2018-03-16T19:44:36.193Z,7.43
2018-03-16T19:47:05.312Z,7.67
2018-03-16T19:49:35.161Z,5.53
2018-03-16T19:52:04.609Z,8.50
2018-03-16T19:54:34.098Z,9.83
2018-03-16T19:57:03.693Z,16.10
2018-03-16T19:59:32.959Z,25.47
2018-03-16T20:02:02.413Z,28.77
2018-03-16T20:04:31.885Z,19.27
2018-03-16T20:07:01.575Z,20.37
2018-03-16T20:09:31.051Z,12.40
2018-03-16T20:12:00.898Z,12.73
2018-03-16T20:14:30.348Z,10.90
2018-03-16T20:16:59.801Z,10.07
2018-03-16T20:19:29.235Z,8.93
2018-03-16T20:21:58.679Z,8.10
2018-03-16T20:24:28.533Z,10.00
2018-03-16T20:26:57.973Z,12.13
2018-03-16T20:29:27.427Z,12.50
2018-03-16T20:31:56.885Z,10.43
2018-03-16T20:34:26.331Z,7.83
2018-03-16T20:36:55.806Z,8.03
2018-03-16T20:39:25.427Z,7.17
2018-03-16T20:41:55.280Z,6.00
2018-03-16T20:44:24.780Z,7.87
2018-03-16T20:46:54.215Z,7.33
2018-03-16T20:49:23.667Z,6.70
2018-03-16T20:51:53.511Z,4.67
2018-03-16T20:54:22.965Z,5.93
2018-03-16T20:56:52.421Z,7.00
2018-03-16T20:59:21.849Z,6.00
2018-03-16T21:01:51.303Z,6.90
2018-03-16T21:04:20.739Z,5.80
2018-03-16T21:06:50.191Z,4.97
2018-03-16T21:09:20.050Z,5.13
2018-03-16T21:11:49.695Z,6.03
2018-03-16T21:14:19.135Z,6.17
2018-03-16T21:16:48.585Z,7.33
2018-03-16T21:19:18.041Z,5.23
2018-03-16T21:21:47.887Z,7.93
2018-03-16T21:24:17.358Z,6.07
2018-03-16T21:26:47.192Z,6.73
2018-03-16T21:29:16.631Z,5.80
2018-03-16T21:31:46.100Z,5.17
2018-03-16T21:34:15.539Z,7.13
2018-03-16T21:36:44.981Z,6.33
2018-03-16T21:39:14.835Z,7.43
2018-03-16T21:41:44.301Z,7.47
2018-03-16T21:44:14.339Z,4.13
2018-03-16T21:46:43.795Z,5.33
2018-03-16T21:49:13.235Z,8.53
2018-03-16T21:51:43.107Z,5.10
2018-03-16T21:54:12.551Z,5.63
2018-03-16T21:56:42.405Z,8.63
2018-03-16T21:59:11.885Z,5.30
2018-03-16T22:01:41.341Z,5.87
2018-03-16T22:04:10.786Z,5.73
2018-03-16T22:06:40.247Z,4.70
2018-03-16T22:09:09.712Z,4.93
2018-03-16T22:11:39.161Z,4.40
2018-03-16T22:14:08.615Z,6.00
2018-03-16T22:16:38.083Z,7.77
2018-03-16T22:19:07.517Z,6.50
2018-03-16T22:21:36.958Z,8.57
2018-03-16T22:24:06.412Z,5.73
2018-03-16T22:26:36.265Z,6.70
2018-03-16T22:29:05.897Z,7.73
2018-03-16T22:31:35.342Z,7.67
2018-03-16T22:34:05.007Z,7.77
2018-03-16T22:36:34.479Z,7.00
2018-03-16T22:39:03.497Z,6.17
2018-03-16T22:41:32.286Z,6.00
2018-03-16T22:44:01.736Z,5.60
2018-03-16T22:46:31.587Z,5.83
2018-03-16T22:49:01.051Z,6.87
2018-03-16T22:51:30.891Z,6.17
2018-03-16T22:54:00.333Z,7.60
2018-03-16T22:56:29.891Z,9.57
2018-03-16T22:58:59.607Z,6.63
2018-03-16T23:01:29.057Z,7.70
2018-03-16T23:03:58.505Z,9.30
2018-03-16T23:06:28.335Z,7.10
2018-03-16T23:08:57.809Z,7.13
2018-03-16T23:11:27.653Z,7.07
2018-03-16T23:13:57.132Z,5.90
2018-03-16T23:16:27.181Z,6.27
2018-03-16T23:18:56.656Z,7.77
2018-03-16T23:21:26.531Z,8.90
2018-03-16T23:23:55.995Z,10.17
2018-03-16T23:26:25.447Z,8.37
2018-03-16T23:28:54.917Z,9.77
2018-03-16T23:31:24.379Z,12.43
2018-03-16T23:33:54.263Z,11.00
2018-03-16T23:36:23.753Z,9.80
2018-03-16T23:38:53.187Z,10.83
2018-03-16T23:41:22.646Z,13.93
2018-03-16T23:43:52.121Z,17.27
2018-03-16T23:46:21.993Z,7.70
2018-03-16T23:48:51.447Z,8.77
2018-03-16T23:51:21.287Z,5.90
2018-03-16T23:53:50.731Z,6.97
2018-03-16T23:56:20.177Z,8.77
2018-03-16T23:58:49.625Z,6.77
